sensor_id;sensor_type;location;lat;lon;timestamp;temperature;humidity
39021;DHT22;25188;51.958;5.842;2022-12-18T00:00:29;-2.70;93.50
39021;DHT22;25188;51.958;5.842;2022-12-18T00:02:55;-2.70;93.50
39021;DHT22;25188;51.958;5.842;2022-12-18T00:05:21;-2.70;93.50
39021;DHT22;25188;51.958;5.842;2022-12-18T00:07:47;-2.70;93.50
39021;DHT22;25188;51.958;5.842;2022-12-18T00:10:12;-2.80;93.50
39021;DHT22;25188;51.958;5.842;2022-12-18T00:12:38;-2.80;93.60
39021;DHT22;25188;51.958;5.842;2022-12-18T00:15:04;-2.80;93.60
39021;DHT22;25188;51.958;5.842;2022-12-18T00:17:30;-2.80;93.60
39021;DHT22;25188;51.958;5.842;2022-12-18T00:19:55;-2.90;93.60
39021;DHT22;25188;51.958;5.842;2022-12-18T00:22:21;-2.90;93.70
39021;DHT22;25188;51.958;5.842;2022-12-18T00:24:46;-2.90;93.70
39021;DHT22;25188;51.958;5.842;2022-12-18T00:27:12;-2.90;93.80
39021;DHT22;25188;51.958;5.842;2022-12-18T00:29:39;-2.90;93.80
39021;DHT22;25188;51.958;5.842;2022-12-18T00:32:04;-2.90;93.80
39021;DHT22;25188;51.958;5.842;2022-12-18T00:34:30;-3.00;93.80
39021;DHT22;25188;51.958;5.842;2022-12-18T00:36:55;-3.00;93.80
39021;DHT22;25188;51.958;5.842;2022-12-18T00:39:21;-3.00;93.80
39021;DHT22;25188;51.958;5.842;2022-12-18T00:41:47;-3.10;93.80
39021;DHT22;25188;51.958;5.842;2022-12-18T00:44:31;-3.00;93.80
39021;DHT22;25188;51.958;5.842;2022-12-18T00:46:56;-3.10;93.80
39021;DHT22;25188;51.958;5.842;2022-12-18T00:49:22;-3.10;93.80
39021;DHT22;25188;51.958;5.842;2022-12-18T00:51:48;-3.10;93.70
39021;DHT22;25188;51.958;5.842;2022-12-18T00:54:14;-3.20;93.70
39021;DHT22;25188;51.958;5.842;2022-12-18T00:56:39;-3.20;93.80
39021;DHT22;25188;51.958;5.842;2022-12-18T00:59:05;-3.20;93.90
39021;DHT22;25188;51.958;5.842;2022-12-18T01:01:31;-3.20;93.90
39021;DHT22;25188;51.958;5.842;2022-12-18T01:03:59;-3.20;93.90
39021;DHT22;25188;51.958;5.842;2022-12-18T01:06:24;-3.30;93.90
39021;DHT22;25188;51.958;5.842;2022-12-18T01:08:50;-3.20;93.90
39021;DHT22;25188;51.958;5.842;2022-12-18T01:11:18;-3.30;93.90
39021;DHT22;25188;51.958;5.842;2022-12-18T01:13:44;-3.30;93.90
39021;DHT22;25188;51.958;5.842;2022-12-18T01:16:14;-3.30;93.80
39021;DHT22;25188;51.958;5.842;2022-12-18T01:18:41;-3.30;93.80
39021;DHT22;25188;51.958;5.842;2022-12-18T01:21:08;-3.40;93.80
39021;DHT22;25188;51.958;5.842;2022-12-18T01:23:35;-3.40;93.80
39021;DHT22;25188;51.958;5.842;2022-12-18T01:26:08;-3.40;93.80
39021;DHT22;25188;51.958;5.842;2022-12-18T01:28:34;-3.30;93.90
39021;DHT22;25188;51.958;5.842;2022-12-18T01:31:30;-3.40;93.90
39021;DHT22;25188;51.958;5.842;2022-12-18T01:33:56;-3.50;93.90
39021;DHT22;25188;51.958;5.842;2022-12-18T01:36:27;-3.50;93.90
39021;DHT22;25188;51.958;5.842;2022-12-18T01:38:54;-3.50;94.00
39021;DHT22;25188;51.958;5.842;2022-12-18T01:41:24;-3.50;94.00
39021;DHT22;25188;51.958;5.842;2022-12-18T01:43:57;-3.50;94.00
39021;DHT22;25188;51.958;5.842;2022-12-18T01:46:24;-3.50;94.00
39021;DHT22;25188;51.958;5.842;2022-12-18T01:48:59;-3.50;94.00
39021;DHT22;25188;51.958;5.842;2022-12-18T01:51:26;-3.60;94.00
39021;DHT22;25188;51.958;5.842;2022-12-18T01:53:52;-3.60;94.00
39021;DHT22;25188;51.958;5.842;2022-12-18T01:56:19;-3.60;94.00
39021;DHT22;25188;51.958;5.842;2022-12-18T01:59:05;-3.60;94.10
39021;DHT22;25188;51.958;5.842;2022-12-18T02:01:33;-3.60;94.10
39021;DHT22;25188;51.958;5.842;2022-12-18T02:06:43;-3.70;94.10
39021;DHT22;25188;51.958;5.842;2022-12-18T02:09:16;-3.60;94.10
39021;DHT22;25188;51.958;5.842;2022-12-18T02:11:53;-3.70;94.00
39021;DHT22;25188;51.958;5.842;2022-12-18T02:17:21;-3.70;94.00
39021;DHT22;25188;51.958;5.842;2022-12-18T02:28:06;-3.90;94.00
39021;DHT22;25188;51.958;5.842;2022-12-18T02:30:35;-3.90;94.00
39021;DHT22;25188;51.958;5.842;2022-12-18T02:33:05;-3.90;94.10
39021;DHT22;25188;51.958;5.842;2022-12-18T02:35:32;-3.90;94.10
39021;DHT22;25188;51.958;5.842;2022-12-18T02:37:59;-3.90;94.10
39021;DHT22;25188;51.958;5.842;2022-12-18T02:40:26;-3.90;94.20
39021;DHT22;25188;51.958;5.842;2022-12-18T02:42:52;-3.90;94.20
39021;DHT22;25188;51.958;5.842;2022-12-18T02:45:18;-3.90;94.20
39021;DHT22;25188;51.958;5.842;2022-12-18T02:47:47;-4.00;94.20
39021;DHT22;25188;51.958;5.842;2022-12-18T02:50:16;-3.90;94.30
39021;DHT22;25188;51.958;5.842;2022-12-18T02:52:53;-4.00;94.30
39021;DHT22;25188;51.958;5.842;2022-12-18T03:03:36;-4.00;94.30
39021;DHT22;25188;51.958;5.842;2022-12-18T03:06:33;-4.10;94.30
39021;DHT22;25188;51.958;5.842;2022-12-18T03:09:07;-4.10;94.30
39021;DHT22;25188;51.958;5.842;2022-12-18T03:11:38;-4.10;94.30
39021;DHT22;25188;51.958;5.842;2022-12-18T03:14:25;-4.10;94.30
39021;DHT22;25188;51.958;5.842;2022-12-18T03:16:54;-4.10;94.30
39021;DHT22;25188;51.958;5.842;2022-12-18T03:19:26;-4.10;94.30
39021;DHT22;25188;51.958;5.842;2022-12-18T03:21:55;-4.10;94.30
39021;DHT22;25188;51.958;5.842;2022-12-18T03:24:22;-4.20;94.60
39021;DHT22;25188;51.958;5.842;2022-12-18T03:26:52;-4.20;94.40
39021;DHT22;25188;51.958;5.842;2022-12-18T03:29:23;-4.20;94.40
39021;DHT22;25188;51.958;5.842;2022-12-18T03:31:54;-4.20;94.40
39021;DHT22;25188;51.958;5.842;2022-12-18T03:34:29;-4.20;94.60
39021;DHT22;25188;51.958;5.842;2022-12-18T03:36:55;-4.20;94.40
39021;DHT22;25188;51.958;5.842;2022-12-18T03:39:20;-4.20;94.40
39021;DHT22;25188;51.958;5.842;2022-12-18T03:41:55;-4.20;94.40
39021;DHT22;25188;51.958;5.842;2022-12-18T03:44:45;-4.20;94.30
39021;DHT22;25188;51.958;5.842;2022-12-18T03:47:26;-4.20;94.40
39021;DHT22;25188;51.958;5.842;2022-12-18T03:50:21;-4.20;94.30
39021;DHT22;25188;51.958;5.842;2022-12-18T03:55:20;-4.30;94.40
39021;DHT22;25188;51.958;5.842;2022-12-18T03:57:48;-4.30;94.30
39021;DHT22;25188;51.958;5.842;2022-12-18T04:00:17;-4.30;94.30
39021;DHT22;25188;51.958;5.842;2022-12-18T04:02:48;-4.30;94.30
39021;DHT22;25188;51.958;5.842;2022-12-18T04:05:17;-4.30;94.30
39021;DHT22;25188;51.958;5.842;2022-12-18T04:07:45;-4.40;94.30
39021;DHT22;25188;51.958;5.842;2022-12-18T04:10:12;-4.40;94.40
39021;DHT22;25188;51.958;5.842;2022-12-18T04:12:39;-4.40;94.40
39021;DHT22;25188;51.958;5.842;2022-12-18T04:15:05;-4.30;94.60
39021;DHT22;25188;51.958;5.842;2022-12-18T04:17:31;-4.40;94.50
39021;DHT22;25188;51.958;5.842;2022-12-18T04:19:57;-4.30;94.50
39021;DHT22;25188;51.958;5.842;2022-12-18T04:22:22;-4.40;94.50
39021;DHT22;25188;51.958;5.842;2022-12-18T04:24:48;-4.30;94.60
39021;DHT22;25188;51.958;5.842;2022-12-18T04:27:14;-4.30;94.60
39021;DHT22;25188;51.958;5.842;2022-12-18T04:29:39;-4.30;94.80
39021;DHT22;25188;51.958;5.842;2022-12-18T04:32:05;-4.40;94.60
39021;DHT22;25188;51.958;5.842;2022-12-18T04:34:30;-4.40;94.60
39021;DHT22;25188;51.958;5.842;2022-12-18T04:36:56;-4.40;94.60
39021;DHT22;25188;51.958;5.842;2022-12-18T04:39:22;-4.40;94.60
39021;DHT22;25188;51.958;5.842;2022-12-18T04:41:47;-4.40;94.60
39021;DHT22;25188;51.958;5.842;2022-12-18T04:44:13;-4.40;94.70
39021;DHT22;25188;51.958;5.842;2022-12-18T04:46:39;-4.40;94.90
39021;DHT22;25188;51.958;5.842;2022-12-18T04:49:04;-4.40;94.60
39021;DHT22;25188;51.958;5.842;2022-12-18T04:51:30;-4.30;94.70
39021;DHT22;25188;51.958;5.842;2022-12-18T04:53:56;-4.40;94.70
39021;DHT22;25188;51.958;5.842;2022-12-18T04:56:22;-4.40;94.70
39021;DHT22;25188;51.958;5.842;2022-12-18T04:58:47;-4.40;94.70
39021;DHT22;25188;51.958;5.842;2022-12-18T05:01:15;-4.40;94.70
39021;DHT22;25188;51.958;5.842;2022-12-18T05:03:41;-4.40;94.70
39021;DHT22;25188;51.958;5.842;2022-12-18T05:06:07;-4.40;94.70
39021;DHT22;25188;51.958;5.842;2022-12-18T05:08:33;-4.40;94.70
39021;DHT22;25188;51.958;5.842;2022-12-18T05:11:08;-4.50;94.70
39021;DHT22;25188;51.958;5.842;2022-12-18T05:13:34;-4.50;94.70
39021;DHT22;25188;51.958;5.842;2022-12-18T05:16:00;-4.50;94.70
39021;DHT22;25188;51.958;5.842;2022-12-18T05:18:26;-4.50;94.70
39021;DHT22;25188;51.958;5.842;2022-12-18T05:20:53;-4.50;94.80
39021;DHT22;25188;51.958;5.842;2022-12-18T05:23:20;-4.50;94.80
39021;DHT22;25188;51.958;5.842;2022-12-18T05:25:53;-4.50;94.80
39021;DHT22;25188;51.958;5.842;2022-12-18T05:28:20;-4.50;94.80
39021;DHT22;25188;51.958;5.842;2022-12-18T05:30:53;-4.50;94.80
39021;DHT22;25188;51.958;5.842;2022-12-18T05:33:21;-4.50;94.90
39021;DHT22;25188;51.958;5.842;2022-12-18T05:35:52;-4.50;94.90
39021;DHT22;25188;51.958;5.842;2022-12-18T05:38:19;-4.50;94.90
39021;DHT22;25188;51.958;5.842;2022-12-18T05:40:44;-4.50;94.90
39021;DHT22;25188;51.958;5.842;2022-12-18T05:43:11;-4.60;94.90
39021;DHT22;25188;51.958;5.842;2022-12-18T05:45:37;-4.50;95.00
39021;DHT22;25188;51.958;5.842;2022-12-18T05:48:04;-4.50;95.00
39021;DHT22;25188;51.958;5.842;2022-12-18T05:50:29;-4.50;95.00
39021;DHT22;25188;51.958;5.842;2022-12-18T05:52:55;-4.50;95.00
39021;DHT22;25188;51.958;5.842;2022-12-18T05:55:20;-4.50;95.00
39021;DHT22;25188;51.958;5.842;2022-12-18T05:57:46;-4.50;95.00
39021;DHT22;25188;51.958;5.842;2022-12-18T06:00:12;-4.50;95.00
39021;DHT22;25188;51.958;5.842;2022-12-18T06:02:38;-4.50;95.00
39021;DHT22;25188;51.958;5.842;2022-12-18T06:05:04;-4.50;95.00
39021;DHT22;25188;51.958;5.842;2022-12-18T06:07:30;-4.50;95.00
39021;DHT22;25188;51.958;5.842;2022-12-18T06:09:55;-4.50;95.00
39021;DHT22;25188;51.958;5.842;2022-12-18T06:12:21;-4.50;95.00
39021;DHT22;25188;51.958;5.842;2022-12-18T06:14:46;-4.50;95.00
39021;DHT22;25188;51.958;5.842;2022-12-18T06:17:12;-4.50;95.10
39021;DHT22;25188;51.958;5.842;2022-12-18T06:19:38;-4.60;95.10
39021;DHT22;25188;51.958;5.842;2022-12-18T06:22:03;-4.50;95.10
39021;DHT22;25188;51.958;5.842;2022-12-18T06:24:29;-4.50;95.20
39021;DHT22;25188;51.958;5.842;2022-12-18T06:26:55;-4.50;95.20
39021;DHT22;25188;51.958;5.842;2022-12-18T06:29:21;-4.50;95.10
39021;DHT22;25188;51.958;5.842;2022-12-18T06:31:46;-4.50;95.10
39021;DHT22;25188;51.958;5.842;2022-12-18T06:34:12;-4.50;95.20
39021;DHT22;25188;51.958;5.842;2022-12-18T06:36:38;-4.50;95.10
39021;DHT22;25188;51.958;5.842;2022-12-18T06:39:03;-4.50;95.20
39021;DHT22;25188;51.958;5.842;2022-12-18T06:41:29;-4.40;95.20
39021;DHT22;25188;51.958;5.842;2022-12-18T06:43:54;-4.40;95.20
39021;DHT22;25188;51.958;5.842;2022-12-18T06:46:20;-4.40;95.20
39021;DHT22;25188;51.958;5.842;2022-12-18T06:48:49;-4.40;95.20
39021;DHT22;25188;51.958;5.842;2022-12-18T06:51:19;-4.50;95.20
39021;DHT22;25188;51.958;5.842;2022-12-18T06:53:45;-4.40;95.20
39021;DHT22;25188;51.958;5.842;2022-12-18T06:56:11;-4.40;95.20
39021;DHT22;25188;51.958;5.842;2022-12-18T06:58:38;-4.40;95.30
39021;DHT22;25188;51.958;5.842;2022-12-18T07:01:05;-4.40;95.30
39021;DHT22;25188;51.958;5.842;2022-12-18T07:03:31;-4.40;95.30
39021;DHT22;25188;51.958;5.842;2022-12-18T07:05:57;-4.40;95.30
39021;DHT22;25188;51.958;5.842;2022-12-18T07:08:22;-4.40;95.30
39021;DHT22;25188;51.958;5.842;2022-12-18T07:10:48;-4.40;95.30
39021;DHT22;25188;51.958;5.842;2022-12-18T07:13:16;-4.40;95.30
39021;DHT22;25188;51.958;5.842;2022-12-18T07:15:43;-4.40;95.30
39021;DHT22;25188;51.958;5.842;2022-12-18T07:18:09;-4.30;95.30
39021;DHT22;25188;51.958;5.842;2022-12-18T07:20:34;-4.30;95.30
39021;DHT22;25188;51.958;5.842;2022-12-18T07:23:02;-4.30;95.30
39021;DHT22;25188;51.958;5.842;2022-12-18T07:25:29;-4.40;95.30
39021;DHT22;25188;51.958;5.842;2022-12-18T07:27:54;-4.40;95.30
39021;DHT22;25188;51.958;5.842;2022-12-18T07:30:20;-4.40;95.30
39021;DHT22;25188;51.958;5.842;2022-12-18T07:32:47;-4.30;95.40
39021;DHT22;25188;51.958;5.842;2022-12-18T07:35:12;-4.30;95.40
39021;DHT22;25188;51.958;5.842;2022-12-18T07:37:38;-4.30;95.40
39021;DHT22;25188;51.958;5.842;2022-12-18T07:40:04;-4.30;95.40
39021;DHT22;25188;51.958;5.842;2022-12-18T07:42:30;-4.30;95.40
39021;DHT22;25188;51.958;5.842;2022-12-18T07:44:55;-4.40;95.40
39021;DHT22;25188;51.958;5.842;2022-12-18T07:47:21;-4.30;95.50
39021;DHT22;25188;51.958;5.842;2022-12-18T07:49:47;-4.30;95.50
39021;DHT22;25188;51.958;5.842;2022-12-18T07:52:13;-4.30;95.50
39021;DHT22;25188;51.958;5.842;2022-12-18T07:54:38;-4.20;95.50
39021;DHT22;25188;51.958;5.842;2022-12-18T07:57:05;-4.20;95.60
39021;DHT22;25188;51.958;5.842;2022-12-18T07:59:31;-4.20;95.60
39021;DHT22;25188;51.958;5.842;2022-12-18T08:01:57;-4.10;95.70
39021;DHT22;25188;51.958;5.842;2022-12-18T08:04:22;-4.10;95.80
39021;DHT22;25188;51.958;5.842;2022-12-18T08:06:48;-4.10;95.90
39021;DHT22;25188;51.958;5.842;2022-12-18T08:09:14;-4.00;95.90
39021;DHT22;25188;51.958;5.842;2022-12-18T08:11:39;-4.00;96.00
39021;DHT22;25188;51.958;5.842;2022-12-18T08:14:05;-3.90;96.00
39021;DHT22;25188;51.958;5.842;2022-12-18T08:16:30;-3.90;96.10
39021;DHT22;25188;51.958;5.842;2022-12-18T08:18:57;-3.80;96.10
39021;DHT22;25188;51.958;5.842;2022-12-18T08:21:30;-3.70;96.20
39021;DHT22;25188;51.958;5.842;2022-12-18T08:23:58;-3.70;96.30
39021;DHT22;25188;51.958;5.842;2022-12-18T08:26:25;-3.60;96.30
39021;DHT22;25188;51.958;5.842;2022-12-18T08:28:53;-3.60;96.40
39021;DHT22;25188;51.958;5.842;2022-12-18T08:31:19;-3.50;96.40
39021;DHT22;25188;51.958;5.842;2022-12-18T08:33:45;-3.40;96.50
39021;DHT22;25188;51.958;5.842;2022-12-18T08:36:13;-3.30;96.60
39021;DHT22;25188;51.958;5.842;2022-12-18T08:38:38;-3.20;96.70
39021;DHT22;25188;51.958;5.842;2022-12-18T08:41:06;-3.20;96.70
39021;DHT22;25188;51.958;5.842;2022-12-18T08:43:32;-3.10;96.80
39021;DHT22;25188;51.958;5.842;2022-12-18T08:46:17;-3.00;96.80
39021;DHT22;25188;51.958;5.842;2022-12-18T08:48:43;-2.90;96.80
39021;DHT22;25188;51.958;5.842;2022-12-18T08:51:09;-2.80;96.80
39021;DHT22;25188;51.958;5.842;2022-12-18T08:53:37;-2.80;96.80
39021;DHT22;25188;51.958;5.842;2022-12-18T08:56:04;-2.70;96.80
39021;DHT22;25188;51.958;5.842;2022-12-18T08:58:30;-2.60;96.80
39021;DHT22;25188;51.958;5.842;2022-12-18T09:01:07;-2.40;96.80
39021;DHT22;25188;51.958;5.842;2022-12-18T09:03:32;-2.40;96.80
39021;DHT22;25188;51.958;5.842;2022-12-18T09:05:58;-2.30;96.90
39021;DHT22;25188;51.958;5.842;2022-12-18T09:08:25;-2.20;96.90
39021;DHT22;25188;51.958;5.842;2022-12-18T09:10:51;-2.20;96.90
39021;DHT22;25188;51.958;5.842;2022-12-18T09:13:17;-2.00;96.90
39021;DHT22;25188;51.958;5.842;2022-12-18T09:15:44;-2.00;96.90
39021;DHT22;25188;51.958;5.842;2022-12-18T09:18:14;-1.80;97.00
39021;DHT22;25188;51.958;5.842;2022-12-18T09:20:40;-1.70;97.00
39021;DHT22;25188;51.958;5.842;2022-12-18T09:23:07;-1.60;97.00
39021;DHT22;25188;51.958;5.842;2022-12-18T09:25:33;-1.50;97.00
39021;DHT22;25188;51.958;5.842;2022-12-18T09:28:04;-1.40;96.80
39021;DHT22;25188;51.958;5.842;2022-12-18T09:30:31;-1.30;96.80
39021;DHT22;25188;51.958;5.842;2022-12-18T09:32:58;-1.20;96.80
39021;DHT22;25188;51.958;5.842;2022-12-18T09:35:24;-1.00;96.40
39021;DHT22;25188;51.958;5.842;2022-12-18T09:37:50;-1.00;96.40
39021;DHT22;25188;51.958;5.842;2022-12-18T09:40:21;-0.90;96.30
39021;DHT22;25188;51.958;5.842;2022-12-18T09:42:52;-0.80;96.10
39021;DHT22;25188;51.958;5.842;2022-12-18T09:45:19;-0.70;95.80
39021;DHT22;25188;51.958;5.842;2022-12-18T09:47:47;-0.60;95.70
39021;DHT22;25188;51.958;5.842;2022-12-18T09:50:32;-0.50;95.70
39021;DHT22;25188;51.958;5.842;2022-12-18T09:53:04;-0.40;95.70
39021;DHT22;25188;51.958;5.842;2022-12-18T09:55:37;-0.40;95.50
39021;DHT22;25188;51.958;5.842;2022-12-18T09:58:16;-0.20;95.40
39021;DHT22;25188;51.958;5.842;2022-12-18T10:00:44;-0.30;95.00
39021;DHT22;25188;51.958;5.842;2022-12-18T10:03:15;-0.20;94.60
39021;DHT22;25188;51.958;5.842;2022-12-18T10:14:23;-0.10;93.90
39021;DHT22;25188;51.958;5.842;2022-12-18T10:20:13;0.00;93.40
39021;DHT22;25188;51.958;5.842;2022-12-18T10:25:28;0.10;93.70
39021;DHT22;25188;51.958;5.842;2022-12-18T10:27:58;0.10;93.80
39021;DHT22;25188;51.958;5.842;2022-12-18T10:30:26;0.30;93.70
39021;DHT22;25188;51.958;5.842;2022-12-18T10:32:52;0.40;93.50
39021;DHT22;25188;51.958;5.842;2022-12-18T10:35:21;0.40;93.50
39021;DHT22;25188;51.958;5.842;2022-12-18T10:38:26;0.50;93.40
39021;DHT22;25188;51.958;5.842;2022-12-18T10:40:54;0.50;93.20
39021;DHT22;25188;51.958;5.842;2022-12-18T10:43:35;0.50;92.90
39021;DHT22;25188;51.958;5.842;2022-12-18T10:48:35;0.60;92.60
39021;DHT22;25188;51.958;5.842;2022-12-18T10:51:02;0.60;92.60
39021;DHT22;25188;51.958;5.842;2022-12-18T10:53:30;0.60;92.10
39021;DHT22;25188;51.958;5.842;2022-12-18T10:55:58;0.60;91.90
39021;DHT22;25188;51.958;5.842;2022-12-18T10:58:35;0.60;91.90
39021;DHT22;25188;51.958;5.842;2022-12-18T11:01:13;0.70;91.40
39021;DHT22;25188;51.958;5.842;2022-12-18T11:04:00;0.70;91.40
39021;DHT22;25188;51.958;5.842;2022-12-18T11:06:27;0.70;91.40
39021;DHT22;25188;51.958;5.842;2022-12-18T11:09:00;0.70;91.30
39021;DHT22;25188;51.958;5.842;2022-12-18T11:11:26;0.70;91.30
39021;DHT22;25188;51.958;5.842;2022-12-18T11:14:04;0.70;91.30
39021;DHT22;25188;51.958;5.842;2022-12-18T11:16:43;0.80;90.90
39021;DHT22;25188;51.958;5.842;2022-12-18T11:21:56;0.80;91.20
39021;DHT22;25188;51.958;5.842;2022-12-18T11:24:36;0.80;91.10
39021;DHT22;25188;51.958;5.842;2022-12-18T11:27:04;0.90;91.10
39021;DHT22;25188;51.958;5.842;2022-12-18T11:29:34;0.90;91.00
39021;DHT22;25188;51.958;5.842;2022-12-18T11:32:22;0.90;91.00
39021;DHT22;25188;51.958;5.842;2022-12-18T11:34:53;0.90;90.80
39021;DHT22;25188;51.958;5.842;2022-12-18T11:37:21;1.00;90.80
39021;DHT22;25188;51.958;5.842;2022-12-18T11:39:56;1.10;91.00
39021;DHT22;25188;51.958;5.842;2022-12-18T11:42:41;1.10;91.00
39021;DHT22;25188;51.958;5.842;2022-12-18T11:50:16;1.20;90.40
39021;DHT22;25188;51.958;5.842;2022-12-18T11:52:42;1.30;90.50
39021;DHT22;25188;51.958;5.842;2022-12-18T11:55:14;1.30;90.40
39021;DHT22;25188;51.958;5.842;2022-12-18T11:58:07;1.30;90.30
39021;DHT22;25188;51.958;5.842;2022-12-18T12:00:40;1.40;90.00
39021;DHT22;25188;51.958;5.842;2022-12-18T12:03:39;1.50;89.40
39021;DHT22;25188;51.958;5.842;2022-12-18T12:14:23;1.50;88.80
39021;DHT22;25188;51.958;5.842;2022-12-18T12:16:56;1.60;88.70
39021;DHT22;25188;51.958;5.842;2022-12-18T12:22:40;1.60;88.20
39021;DHT22;25188;51.958;5.842;2022-12-18T12:28:13;1.60;87.80
39021;DHT22;25188;51.958;5.842;2022-12-18T12:33:42;1.60;87.80
39021;DHT22;25188;51.958;5.842;2022-12-18T12:38:56;1.60;87.90
39021;DHT22;25188;51.958;5.842;2022-12-18T12:41:25;1.60;87.50
39021;DHT22;25188;51.958;5.842;2022-12-18T12:44:19;1.60;87.40
39021;DHT22;25188;51.958;5.842;2022-12-18T12:46:47;1.70;87.70
39021;DHT22;25188;51.958;5.842;2022-12-18T12:49:17;1.70;87.60
39021;DHT22;25188;51.958;5.842;2022-12-18T12:51:47;1.70;87.40
39021;DHT22;25188;51.958;5.842;2022-12-18T12:54:19;1.70;87.30
39021;DHT22;25188;51.958;5.842;2022-12-18T12:59:46;1.70;87.10
39021;DHT22;25188;51.958;5.842;2022-12-18T13:02:39;1.70;87.00
39021;DHT22;25188;51.958;5.842;2022-12-18T13:05:40;1.80;86.90
39021;DHT22;25188;51.958;5.842;2022-12-18T13:08:10;1.80;86.60
39021;DHT22;25188;51.958;5.842;2022-12-18T13:10:41;1.80;86.60
39021;DHT22;25188;51.958;5.842;2022-12-18T13:13:14;1.80;86.30
39021;DHT22;25188;51.958;5.842;2022-12-18T13:23:25;1.80;85.50
39021;DHT22;25188;51.958;5.842;2022-12-18T13:26:27;1.80;85.70
39021;DHT22;25188;51.958;5.842;2022-12-18T13:31:15;1.80;85.40
39021;DHT22;25188;51.958;5.842;2022-12-18T13:34:22;1.80;85.30
39021;DHT22;25188;51.958;5.842;2022-12-18T13:36:49;1.80;84.90
39021;DHT22;25188;51.958;5.842;2022-12-18T13:41:45;1.80;84.30
39021;DHT22;25188;51.958;5.842;2022-12-18T13:44:36;1.90;84.40
39021;DHT22;25188;51.958;5.842;2022-12-18T13:47:36;1.90;84.50
39021;DHT22;25188;51.958;5.842;2022-12-18T13:50:20;1.90;84.60
39021;DHT22;25188;51.958;5.842;2022-12-18T13:52:47;1.90;84.40
39021;DHT22;25188;51.958;5.842;2022-12-18T13:55:18;1.90;84.10
39021;DHT22;25188;51.958;5.842;2022-12-18T13:57:44;1.80;84.00
39021;DHT22;25188;51.958;5.842;2022-12-18T14:02:45;1.80;84.10
39021;DHT22;25188;51.958;5.842;2022-12-18T14:05:25;1.80;84.00
39021;DHT22;25188;51.958;5.842;2022-12-18T14:07:53;1.80;84.20
39021;DHT22;25188;51.958;5.842;2022-12-18T14:10:19;1.80;83.70
39021;DHT22;25188;51.958;5.842;2022-12-18T14:19:16;1.80;83.20
39021;DHT22;25188;51.958;5.842;2022-12-18T14:21:47;1.80;83.40
39021;DHT22;25188;51.958;5.842;2022-12-18T14:24:18;1.80;83.10
39021;DHT22;25188;51.958;5.842;2022-12-18T14:26:45;1.80;83.00
39021;DHT22;25188;51.958;5.842;2022-12-18T14:29:30;1.80;83.20
39021;DHT22;25188;51.958;5.842;2022-12-18T14:32:17;1.80;82.30
39021;DHT22;25188;51.958;5.842;2022-12-18T14:34:51;1.80;82.60
39021;DHT22;25188;51.958;5.842;2022-12-18T14:37:24;1.80;82.60
39021;DHT22;25188;51.958;5.842;2022-12-18T14:39:58;1.80;82.30
39021;DHT22;25188;51.958;5.842;2022-12-18T14:42:26;1.80;82.40
39021;DHT22;25188;51.958;5.842;2022-12-18T14:47:59;1.80;81.60
39021;DHT22;25188;51.958;5.842;2022-12-18T14:50:25;1.80;81.60
39021;DHT22;25188;51.958;5.842;2022-12-18T14:52:51;1.80;81.70
39021;DHT22;25188;51.958;5.842;2022-12-18T14:55:18;1.80;81.40
39021;DHT22;25188;51.958;5.842;2022-12-18T14:57:44;1.90;81.30
39021;DHT22;25188;51.958;5.842;2022-12-18T15:00:19;1.80;81.10
39021;DHT22;25188;51.958;5.842;2022-12-18T15:02:50;1.80;81.30
39021;DHT22;25188;51.958;5.842;2022-12-18T15:05:31;1.70;81.10
39021;DHT22;25188;51.958;5.842;2022-12-18T15:07:59;1.70;81.20
39021;DHT22;25188;51.958;5.842;2022-12-18T15:10:27;1.80;81.20
39021;DHT22;25188;51.958;5.842;2022-12-18T15:20:52;1.70;81.10
39021;DHT22;25188;51.958;5.842;2022-12-18T15:23:21;1.70;80.80
39021;DHT22;25188;51.958;5.842;2022-12-18T15:26:02;1.70;80.50
39021;DHT22;25188;51.958;5.842;2022-12-18T15:31:30;1.70;80.80
39021;DHT22;25188;51.958;5.842;2022-12-18T15:36:23;1.70;80.90
39021;DHT22;25188;51.958;5.842;2022-12-18T15:38:53;1.70;80.60
39021;DHT22;25188;51.958;5.842;2022-12-18T15:41:21;1.60;80.40
39021;DHT22;25188;51.958;5.842;2022-12-18T15:43:49;1.60;80.50
39021;DHT22;25188;51.958;5.842;2022-12-18T15:46:20;1.60;80.40
39021;DHT22;25188;51.958;5.842;2022-12-18T15:48:48;1.60;80.80
39021;DHT22;25188;51.958;5.842;2022-12-18T15:54:13;1.60;80.60
39021;DHT22;25188;51.958;5.842;2022-12-18T15:56:41;1.60;80.50
39021;DHT22;25188;51.958;5.842;2022-12-18T15:59:26;1.50;80.50
39021;DHT22;25188;51.958;5.842;2022-12-18T16:01:52;1.50;80.30
39021;DHT22;25188;51.958;5.842;2022-12-18T16:04:22;1.60;80.40
39021;DHT22;25188;51.958;5.842;2022-12-18T16:06:49;1.50;80.30
39021;DHT22;25188;51.958;5.842;2022-12-18T16:09:15;1.50;80.20
39021;DHT22;25188;51.958;5.842;2022-12-18T16:11:42;1.50;80.10
39021;DHT22;25188;51.958;5.842;2022-12-18T16:16:47;1.50;80.20
39021;DHT22;25188;51.958;5.842;2022-12-18T16:19:13;1.50;80.30
39021;DHT22;25188;51.958;5.842;2022-12-18T16:21:39;1.50;80.30
39021;DHT22;25188;51.958;5.842;2022-12-18T16:24:05;1.50;80.40
39021;DHT22;25188;51.958;5.842;2022-12-18T16:26:31;1.50;80.20
39021;DHT22;25188;51.958;5.842;2022-12-18T16:28:56;1.50;80.10
39021;DHT22;25188;51.958;5.842;2022-12-18T16:31:22;1.50;80.00
39021;DHT22;25188;51.958;5.842;2022-12-18T16:33:47;1.50;79.50
39021;DHT22;25188;51.958;5.842;2022-12-18T16:36:13;1.50;79.50
39021;DHT22;25188;51.958;5.842;2022-12-18T16:38:39;1.50;79.70
39021;DHT22;25188;51.958;5.842;2022-12-18T16:41:18;1.50;80.00
39021;DHT22;25188;51.958;5.842;2022-12-18T16:43:56;1.50;79.80
39021;DHT22;25188;51.958;5.842;2022-12-18T16:46:22;1.50;79.70
39021;DHT22;25188;51.958;5.842;2022-12-18T16:48:47;1.40;79.70
39021;DHT22;25188;51.958;5.842;2022-12-18T16:51:13;1.40;79.70
39021;DHT22;25188;51.958;5.842;2022-12-18T16:53:38;1.40;79.70
39021;DHT22;25188;51.958;5.842;2022-12-18T16:56:04;1.40;79.80
39021;DHT22;25188;51.958;5.842;2022-12-18T16:58:30;1.40;79.70
39021;DHT22;25188;51.958;5.842;2022-12-18T17:00:55;1.40;79.90
39021;DHT22;25188;51.958;5.842;2022-12-18T17:03:21;1.50;79.80
39021;DHT22;25188;51.958;5.842;2022-12-18T17:05:46;1.30;79.50
39021;DHT22;25188;51.958;5.842;2022-12-18T17:08:12;1.40;79.30
39021;DHT22;25188;51.958;5.842;2022-12-18T17:10:38;1.30;79.40
39021;DHT22;25188;51.958;5.842;2022-12-18T17:13:03;1.30;79.60
39021;DHT22;25188;51.958;5.842;2022-12-18T17:15:29;1.40;79.50
39021;DHT22;25188;51.958;5.842;2022-12-18T17:17:55;1.30;79.40
39021;DHT22;25188;51.958;5.842;2022-12-18T17:20:21;1.30;79.50
39021;DHT22;25188;51.958;5.842;2022-12-18T17:22:46;1.30;79.50
39021;DHT22;25188;51.958;5.842;2022-12-18T17:25:12;1.30;79.60
39021;DHT22;25188;51.958;5.842;2022-12-18T17:27:37;1.30;79.60
39021;DHT22;25188;51.958;5.842;2022-12-18T17:30:04;1.30;79.70
39021;DHT22;25188;51.958;5.842;2022-12-18T17:32:29;1.30;79.60
39021;DHT22;25188;51.958;5.842;2022-12-18T17:34:55;1.30;79.60
39021;DHT22;25188;51.958;5.842;2022-12-18T17:37:21;1.40;79.80
39021;DHT22;25188;51.958;5.842;2022-12-18T17:39:46;1.20;79.80
39021;DHT22;25188;51.958;5.842;2022-12-18T17:42:12;1.20;79.90
39021;DHT22;25188;51.958;5.842;2022-12-18T17:44:38;1.30;80.10
39021;DHT22;25188;51.958;5.842;2022-12-18T17:47:04;1.20;79.90